createdAt,value
2022-08-14T00:00:59.185Z,99.90
2022-08-14T00:03:02.453Z,99.90
2022-08-14T00:05:09.186Z,99.90
2022-08-14T00:07:14.830Z,99.90
2022-08-14T00:09:21.585Z,99.90
2022-08-14T00:11:25.801Z,99.90
2022-08-14T00:13:39.221Z,99.90
2022-08-14T00:15:48.335Z,99.90
2022-08-14T00:18:14.386Z,99.90
2022-08-14T00:20:41.193Z,99.90
2022-08-14T00:22:57.818Z,99.90
2022-08-14T00:25:01.446Z,99.90
2022-08-14T00:27:04.904Z,99.90
2022-08-14T00:29:12.158Z,99.90
2022-08-14T00:31:16.205Z,99.90
2022-08-14T00:33:52.532Z,99.90
2022-08-14T00:36:35.837Z,99.90
2022-08-14T00:38:38.380Z,99.90
2022-08-14T00:40:46.192Z,99.90
2022-08-14T00:42:55.899Z,99.90
2022-08-14T00:45:03.751Z,99.90
2022-08-14T00:47:06.945Z,99.90
2022-08-14T00:49:14.459Z,99.90
2022-08-14T00:51:18.129Z,99.90
2022-08-14T00:53:22.326Z,99.90
2022-08-14T00:55:26.189Z,99.90
2022-08-14T00:57:32.171Z,99.90
2022-08-14T00:59:35.948Z,99.90
2022-08-14T01:01:41.811Z,99.90
2022-08-14T01:03:45.311Z,99.90
2022-08-14T01:05:52.231Z,99.90
2022-08-14T01:07:56.971Z,99.90
2022-08-14T01:10:03.058Z,99.90
2022-08-14T01:12:08.092Z,99.90
2022-08-14T01:14:27.592Z,99.90
2022-08-14T01:16:31.895Z,99.90
2022-08-14T01:18:37.794Z,99.90
2022-08-14T01:20:41.845Z,99.90
2022-08-14T01:22:49.584Z,99.90
2022-08-14T01:24:53.025Z,99.90
2022-08-14T01:26:56.209Z,99.90
2022-08-14T01:28:59.575Z,99.90
2022-08-14T01:31:03.210Z,99.90
2022-08-14T01:33:08.050Z,99.90
2022-08-14T01:35:20.412Z,99.90
2022-08-14T01:37:33.585Z,99.90
2022-08-14T01:39:41.971Z,99.90
2022-08-14T01:41:47.447Z,99.90
2022-08-14T01:43:56.296Z,99.90
2022-08-14T01:46:06.956Z,99.90
2022-08-14T01:48:13.409Z,99.90
2022-08-14T01:50:16.621Z,99.90
2022-08-14T01:52:34.027Z,99.90
2022-08-14T01:54:45.123Z,99.90
2022-08-14T01:57:01.246Z,99.90
2022-08-14T01:59:05.601Z,99.90
2022-08-14T02:01:13.542Z,99.90
2022-08-14T02:03:16.698Z,99.90
2022-08-14T02:05:19.825Z,99.90
2022-08-14T02:07:34.177Z,99.90
2022-08-14T02:09:55.858Z,99.90
2022-08-14T02:11:58.776Z,99.90
2022-08-14T02:14:07.918Z,99.90
2022-08-14T02:16:21.984Z,99.90
2022-08-14T02:18:25.591Z,99.90
2022-08-14T02:20:29.850Z,99.90
2022-08-14T02:22:33.409Z,99.90
2022-08-14T02:24:40.377Z,99.90
2022-08-14T02:26:58.328Z,99.90
2022-08-14T02:29:21.147Z,99.90
2022-08-14T02:31:28.440Z,99.90
2022-08-14T02:33:39.629Z,99.90
2022-08-14T02:35:43.873Z,99.90
2022-08-14T02:37:56.202Z,99.90
2022-08-14T02:39:59.242Z,99.90
2022-08-14T02:42:06.038Z,99.90
2022-08-14T02:44:10.767Z,99.90
2022-08-14T02:46:14.104Z,99.90
2022-08-14T02:49:04.443Z,99.90
2022-08-14T02:50:51.380Z,99.90
2022-08-14T02:52:57.444Z,99.90
2022-08-14T02:55:07.321Z,99.90
2022-08-14T02:57:16.396Z,99.90
2022-08-14T02:59:37.392Z,99.90
2022-08-14T03:01:43.331Z,99.90
2022-08-14T03:03:48.444Z,99.90
2022-08-14T03:05:52.512Z,99.90
2022-08-14T03:08:05.744Z,99.90
2022-08-14T03:10:26.628Z,99.90
2022-08-14T03:12:37.591Z,99.90
2022-08-14T03:14:40.713Z,99.90
2022-08-14T03:16:44.972Z,99.90
2022-08-14T03:18:53.960Z,99.90
2022-08-14T03:20:57.818Z,99.90
2022-08-14T03:23:02.729Z,99.90
2022-08-14T03:25:07.431Z,99.90
2022-08-14T03:27:13.045Z,99.90
2022-08-14T03:29:19.082Z,99.90
2022-08-14T03:31:28.466Z,99.90
2022-08-14T03:33:38.050Z,99.90
2022-08-14T03:36:00.318Z,99.90
2022-08-14T03:39:16.001Z,99.90
2022-08-14T03:40:31.698Z,99.90
2022-08-14T03:42:35.818Z,99.90
2022-08-14T03:45:19.987Z,99.90
2022-08-14T03:47:05.985Z,99.90
2022-08-14T03:49:09.646Z,99.90
2022-08-14T03:51:16.606Z,99.90
2022-08-14T03:53:20.127Z,99.90
2022-08-14T03:55:23.290Z,99.90
2022-08-14T03:57:26.310Z,99.90
2022-08-14T03:59:29.714Z,99.90
2022-08-14T04:01:41.438Z,99.90
2022-08-14T04:03:50.303Z,99.90
2022-08-14T04:05:57.887Z,99.90
2022-08-14T04:08:22.382Z,99.90
2022-08-14T04:10:26.345Z,99.90
2022-08-14T04:12:35.460Z,99.90
2022-08-14T04:14:38.577Z,99.90
2022-08-14T04:16:47.773Z,99.90
2022-08-14T04:18:53.781Z,99.90
2022-08-14T04:20:56.792Z,99.90
2022-08-14T04:22:59.835Z,99.90
2022-08-14T04:25:05.353Z,99.90
2022-08-14T04:27:09.627Z,99.90
2022-08-14T04:29:15.436Z,99.90
2022-08-14T04:31:34.612Z,99.90
2022-08-14T04:33:46.391Z,99.90
2022-08-14T04:35:55.528Z,99.90
2022-08-14T04:38:00.098Z,99.90
2022-08-14T04:40:03.748Z,99.90
2022-08-14T04:42:14.107Z,99.90
2022-08-14T04:44:36.619Z,99.90
2022-08-14T04:46:56.548Z,99.90
2022-08-14T04:49:03.809Z,99.90
2022-08-14T04:51:13.365Z,99.90
2022-08-14T04:53:18.973Z,99.90
2022-08-14T04:55:27.814Z,99.90
2022-08-14T04:57:30.856Z,99.90
2022-08-14T04:59:35.602Z,99.90
2022-08-14T05:01:40.777Z,99.90
2022-08-14T05:03:44.626Z,99.90
2022-08-14T05:05:51.636Z,99.90
2022-08-14T05:08:01.840Z,99.90
2022-08-14T05:10:12.699Z,99.90
2022-08-14T05:13:13.448Z,99.90
2022-08-14T05:14:53.454Z,99.90
2022-08-14T05:16:59.259Z,99.90
2022-08-14T05:19:17.683Z,99.90
2022-08-14T05:21:56.892Z,99.90
2022-08-14T05:23:53.832Z,99.90
2022-08-14T05:25:59.888Z,99.90
2022-08-14T05:28:14.165Z,99.90
2022-08-14T05:30:19.974Z,99.90
2022-08-14T05:32:23.551Z,99.90
2022-08-14T05:34:31.889Z,99.90
2022-08-14T05:36:38.188Z,99.90
2022-08-14T05:38:44.479Z,99.90
2022-08-14T05:40:48.834Z,99.90
2022-08-14T05:42:52.808Z,99.90
2022-08-14T05:44:56.234Z,99.90
2022-08-14T05:46:59.508Z,99.90
2022-08-14T05:49:04.050Z,99.90
2022-08-14T05:51:07.148Z,99.90
2022-08-14T05:53:13.340Z,99.90
2022-08-14T05:55:22.029Z,99.90
2022-08-14T05:57:25.560Z,99.90
2022-08-14T05:59:36.664Z,99.90
2022-08-14T06:01:42.075Z,99.90
2022-08-14T06:03:45.234Z,99.90
2022-08-14T06:05:53.050Z,99.90
2022-08-14T06:07:57.299Z,99.90
2022-08-14T06:10:03.851Z,99.90
2022-08-14T06:12:08.303Z,99.90
2022-08-14T06:14:12.433Z,99.90
2022-08-14T06:16:24.704Z,99.90
2022-08-14T06:18:27.845Z,99.90
2022-08-14T06:20:35.857Z,99.90
2022-08-14T06:22:39.200Z,99.90
2022-08-14T06:24:44.100Z,99.90
2022-08-14T06:26:54.285Z,99.90
2022-08-14T06:29:00.089Z,99.90
2022-08-14T06:31:03.245Z,99.90
2022-08-14T06:33:08.131Z,99.90
2022-08-14T06:35:13.222Z,99.90
2022-08-14T06:37:17.189Z,99.90
2022-08-14T06:39:37.365Z,99.90
2022-08-14T06:41:57.803Z,99.90
2022-08-14T06:44:04.726Z,99.90
2022-08-14T06:46:12.866Z,99.90
2022-08-14T06:48:26.442Z,99.90
2022-08-14T06:50:31.678Z,99.90
2022-08-14T06:52:37.302Z,99.90
2022-08-14T06:54:40.259Z,99.90
2022-08-14T06:56:44.446Z,99.90
2022-08-14T06:58:57.224Z,99.90
2022-08-14T07:01:03.244Z,99.90
2022-08-14T07:03:06.709Z,99.90
2022-08-14T07:05:20.954Z,99.90
2022-08-14T07:07:25.803Z,99.90
2022-08-14T07:09:43.552Z,99.90
2022-08-14T07:11:53.507Z,99.90
2022-08-14T07:13:56.734Z,99.90
2022-08-14T07:16:05.347Z,99.90
2022-08-14T07:18:09.920Z,99.90
2022-08-14T07:20:14.027Z,99.90
2022-08-14T07:22:21.999Z,99.90
2022-08-14T07:24:31.183Z,99.90
2022-08-14T07:26:34.903Z,99.90
2022-08-14T07:28:43.546Z,99.90
2022-08-14T07:30:50.653Z,99.90
2022-08-14T07:32:57.410Z,99.90
2022-08-14T07:35:00.445Z,99.90
2022-08-14T07:37:03.513Z,99.90
2022-08-14T07:39:12.329Z,99.90
2022-08-14T07:41:16.624Z,99.90
2022-08-14T07:43:20.209Z,99.90
2022-08-14T07:45:24.937Z,99.90
2022-08-14T07:47:39.813Z,99.90
2022-08-14T07:49:58.409Z,99.90
2022-08-14T07:52:03.344Z,99.90
2022-08-14T07:54:11.249Z,99.90
2022-08-14T07:56:36.780Z,99.90
2022-08-14T07:58:39.038Z,99.90
2022-08-14T08:00:56.879Z,99.90
2022-08-14T08:03:00.623Z,99.90
2022-08-14T08:05:08.650Z,99.90
2022-08-14T08:07:12.073Z,99.90
2022-08-14T08:09:18.329Z,99.90
2022-08-14T08:11:22.158Z,99.90
2022-08-14T08:13:28.690Z,99.80
2022-08-14T08:15:35.419Z,98.80
2022-08-14T08:17:42.583Z,98.60
2022-08-14T08:19:46.254Z,98.20
2022-08-14T08:21:58.418Z,95.50
2022-08-14T08:24:01.426Z,95.80
2022-08-14T08:26:06.849Z,95.30
2022-08-14T08:28:22.001Z,94.60
2022-08-14T08:30:29.917Z,96.00
2022-08-14T08:32:39.155Z,97.30
2022-08-14T08:34:46.114Z,95.50
2022-08-14T08:36:49.162Z,92.60
2022-08-14T08:39:17.302Z,93.60
2022-08-14T08:41:23.347Z,93.00
2022-08-14T08:43:29.246Z,93.40
2022-08-14T08:45:32.829Z,93.20
2022-08-14T08:47:39.599Z,92.60
2022-08-14T08:49:52.659Z,93.20
2022-08-14T08:52:03.258Z,93.50
2022-08-14T08:54:15.391Z,93.00
2022-08-14T08:56:39.518Z,93.30
2022-08-14T08:58:42.331Z,94.70
2022-08-14T09:00:48.824Z,94.80
2022-08-14T09:02:59.806Z,95.80
2022-08-14T09:05:03.847Z,96.20
2022-08-14T09:07:10.927Z,96.30
2022-08-14T09:09:33.095Z,96.20
2022-08-14T09:11:37.027Z,95.40
2022-08-14T09:13:40.047Z,94.70
2022-08-14T09:15:47.354Z,94.20
2022-08-14T09:17:52.718Z,93.40
2022-08-14T09:19:57.962Z,92.30
2022-08-14T09:22:36.133Z,92.80
2022-08-14T09:24:35.356Z,92.20
2022-08-14T09:26:41.323Z,91.90
2022-08-14T09:28:44.497Z,90.60
2022-08-14T09:30:50.507Z,91.40
2022-08-14T09:33:27.500Z,91.40
2022-08-14T09:35:43.220Z,91.90
2022-08-14T09:37:58.475Z,92.80
2022-08-14T09:40:21.818Z,92.90
2022-08-14T09:42:50.034Z,91.00
2022-08-14T09:45:09.002Z,89.80
2022-08-14T09:47:14.614Z,90.30
2022-08-14T09:49:17.901Z,86.00
2022-08-14T09:51:25.393Z,86.10
2022-08-14T09:54:12.620Z,83.40
2022-08-14T09:56:03.616Z,85.10
2022-08-14T09:58:22.869Z,84.10
2022-08-14T10:00:42.142Z,84.50
2022-08-14T10:02:53.172Z,86.60
2022-08-14T10:05:05.173Z,86.10
2022-08-14T10:07:12.420Z,86.80
2022-08-14T10:09:16.729Z,85.50
2022-08-14T10:11:24.509Z,85.60
2022-08-14T10:13:27.529Z,86.40
2022-08-14T10:15:47.314Z,85.80
2022-08-14T10:17:50.801Z,87.90
2022-08-14T10:19:58.070Z,89.00
2022-08-14T10:23:13.182Z,90.00
2022-08-14T10:24:36.927Z,89.30
2022-08-14T10:26:56.332Z,88.80
2022-08-14T10:29:18.532Z,87.70
2022-08-14T10:31:27.139Z,87.00
2022-08-14T10:33:32.295Z,88.10
2022-08-14T10:35:48.196Z,90.10
2022-08-14T10:37:52.470Z,90.80
2022-08-14T10:40:02.000Z,90.40
2022-08-14T10:42:18.225Z,90.20
2022-08-14T10:44:23.674Z,89.70
2022-08-14T10:47:39.944Z,89.20
2022-08-14T10:48:57.496Z,88.50
2022-08-14T10:51:00.497Z,88.80
2022-08-14T10:53:03.782Z,90.10
2022-08-14T10:55:09.636Z,88.40
2022-08-14T10:57:21.180Z,88.20
2022-08-14T10:59:30.967Z,88.80
2022-08-14T11:01:41.311Z,91.00
2022-08-14T11:03:56.174Z,90.90
2022-08-14T11:06:00.158Z,90.90
2022-08-14T11:08:08.992Z,90.40
2022-08-14T11:10:16.276Z,90.80
2022-08-14T11:12:34.535Z,91.40
2022-08-14T11:14:51.268Z,90.40
2022-08-14T11:17:02.800Z,90.00
2022-08-14T11:19:07.774Z,90.20
2022-08-14T11:21:16.015Z,90.50
2022-08-14T11:23:20.930Z,88.80
2022-08-14T11:25:43.547Z,89.30
2022-08-14T11:27:51.316Z,86.90
2022-08-14T11:30:00.358Z,85.00
2022-08-14T11:32:19.870Z,85.50
2022-08-14T11:34:31.930Z,84.10
2022-08-14T11:37:04.416Z,83.30
2022-08-14T11:38:58.855Z,84.50
2022-08-14T11:41:01.933Z,85.50
2022-08-14T11:43:08.752Z,85.20
2022-08-14T11:45:17.094Z,85.60
2022-08-14T11:47:21.820Z,81.10
2022-08-14T11:49:26.814Z,81.30
2022-08-14T11:51:53.509Z,79.70
2022-08-14T11:54:01.068Z,76.60
2022-08-14T11:56:06.088Z,74.80
2022-08-14T11:58:23.751Z,74.70
2022-08-14T12:00:32.130Z,74.80
2022-08-14T12:03:03.429Z,74.40
2022-08-14T12:05:09.269Z,75.90
2022-08-14T12:07:12.851Z,75.70
2022-08-14T12:09:29.035Z,76.40
2022-08-14T12:11:43.594Z,73.10
2022-08-14T12:13:56.025Z,69.10
2022-08-14T12:16:06.265Z,71.50
2022-08-14T12:18:19.351Z,72.70
2022-08-14T12:20:32.539Z,70.10
2022-08-14T12:22:38.054Z,68.90
2022-08-14T12:24:43.901Z,67.60
2022-08-14T12:26:57.908Z,67.70
2022-08-14T12:29:10.309Z,69.00
2022-08-14T12:31:15.098Z,67.30
2022-08-14T12:33:25.737Z,63.90
2022-08-14T12:35:39.786Z,64.20
2022-08-14T12:37:48.561Z,67.20
2022-08-14T12:39:51.591Z,65.70
2022-08-14T12:41:57.220Z,62.90
2022-08-14T12:44:02.626Z,62.90
2022-08-14T12:46:08.309Z,61.50
2022-08-14T12:48:31.677Z,61.20
2022-08-14T12:50:37.454Z,59.00
2022-08-14T12:53:01.971Z,60.20
2022-08-14T12:55:09.924Z,61.30
2022-08-14T12:57:19.494Z,62.50
2022-08-14T12:59:30.510Z,63.60
2022-08-14T13:01:59.738Z,65.20
2022-08-14T13:04:05.427Z,68.40
2022-08-14T13:06:08.806Z,71.20
2022-08-14T13:08:33.077Z,72.80
2022-08-14T13:10:46.983Z,73.10
2022-08-14T13:13:13.198Z,74.40
2022-08-14T13:15:17.289Z,76.40
2022-08-14T13:17:26.941Z,77.50
2022-08-14T13:19:32.930Z,79.70
2022-08-14T13:22:05.601Z,79.70
2022-08-14T13:24:03.004Z,80.90
2022-08-14T13:26:10.310Z,82.30
2022-08-14T13:28:13.427Z,81.30
2022-08-14T13:30:33.894Z,81.90
2022-08-14T13:32:40.424Z,82.30
2022-08-14T13:34:47.285Z,81.90
2022-08-14T13:36:59.019Z,81.50
2022-08-14T13:39:03.502Z,80.70
2022-08-14T13:41:07.394Z,79.40
2022-08-14T13:43:13.421Z,78.80
2022-08-14T13:45:19.980Z,77.70
2022-08-14T13:47:27.418Z,77.10
2022-08-14T13:49:33.112Z,77.60
2022-08-14T13:51:39.708Z,76.50
2022-08-14T13:54:01.517Z,75.30
2022-08-14T13:56:14.514Z,72.20
2022-08-14T13:58:30.356Z,70.80
2022-08-14T14:00:52.970Z,71.30
2022-08-14T14:03:04.870Z,72.30
2022-08-14T14:05:15.223Z,71.30
2022-08-14T14:07:21.287Z,72.40
2022-08-14T14:09:37.481Z,72.10
2022-08-14T14:11:47.212Z,73.50
2022-08-14T14:13:57.835Z,75.20
2022-08-14T14:16:02.203Z,74.60
2022-08-14T14:18:07.046Z,74.60
2022-08-14T14:20:35.871Z,75.20
2022-08-14T14:23:02.470Z,74.80
2022-08-14T14:25:05.148Z,75.60
2022-08-14T14:27:37.301Z,76.20
2022-08-14T14:29:33.625Z,76.80
2022-08-14T14:31:47.875Z,77.00
2022-08-14T14:33:58.207Z,77.70
2022-08-14T14:36:04.851Z,76.50
2022-08-14T14:38:13.282Z,76.80
2022-08-14T14:40:52.063Z,74.60
2022-08-14T14:42:48.645Z,74.30
2022-08-14T14:45:02.969Z,70.70
2022-08-14T14:47:07.825Z,71.10
2022-08-14T14:49:13.823Z,70.90
2022-08-14T14:51:19.874Z,69.30
2022-08-14T14:53:25.064Z,68.40
2022-08-14T14:55:54.201Z,68.30
2022-08-14T14:57:58.187Z,68.10
2022-08-14T15:00:02.693Z,65.90
2022-08-14T15:02:08.109Z,66.60
2022-08-14T15:04:26.900Z,65.80
2022-08-14T15:06:53.202Z,64.80
2022-08-14T15:08:59.664Z,64.80
2022-08-14T15:11:13.766Z,65.10
2022-08-14T15:13:35.744Z,65.50
2022-08-14T15:15:46.318Z,65.90
2022-08-14T15:17:49.732Z,67.70
2022-08-14T15:19:58.226Z,67.70
2022-08-14T15:22:05.565Z,69.00
2022-08-14T15:24:10.667Z,70.20
2022-08-14T15:26:24.230Z,71.40
2022-08-14T15:28:38.692Z,73.20
2022-08-14T15:30:44.860Z,74.70
2022-08-14T15:32:54.317Z,76.60
2022-08-14T15:34:57.381Z,76.50
2022-08-14T15:37:01.813Z,77.00
2022-08-14T15:39:07.814Z,77.30
2022-08-14T15:41:10.868Z,77.90
2022-08-14T15:43:15.173Z,78.70
2022-08-14T15:45:19.182Z,80.00
2022-08-14T15:47:27.936Z,80.90
2022-08-14T15:49:33.209Z,81.40
2022-08-14T15:51:42.215Z,81.70
2022-08-14T15:53:46.823Z,82.30
2022-08-14T15:55:56.554Z,83.40
2022-08-14T15:58:03.593Z,83.30
2022-08-14T16:00:11.292Z,84.30
2022-08-14T16:02:27.511Z,83.70
2022-08-14T16:04:30.954Z,84.00
2022-08-14T16:06:33.942Z,83.80
2022-08-14T16:08:38.793Z,84.30
2022-08-14T16:10:42.809Z,84.30
2022-08-14T16:12:48.793Z,84.60
2022-08-14T16:14:51.867Z,84.80
2022-08-14T16:17:00.036Z,85.70
2022-08-14T16:19:05.322Z,85.50
2022-08-14T16:21:12.761Z,86.00
2022-08-14T16:23:17.536Z,86.20
2022-08-14T16:25:34.736Z,86.30
2022-08-14T16:27:41.535Z,86.20
2022-08-14T16:29:56.929Z,86.40
2022-08-14T16:32:01.572Z,86.50
2022-08-14T16:34:47.050Z,86.50
2022-08-14T16:36:30.658Z,87.10
2022-08-14T16:38:45.517Z,87.70
2022-08-14T16:40:51.022Z,88.40
2022-08-14T16:43:04.790Z,89.10
2022-08-14T16:45:23.581Z,89.90
2022-08-14T16:47:32.199Z,90.10
2022-08-14T16:50:03.162Z,90.00
2022-08-14T16:52:04.441Z,89.80
2022-08-14T16:54:34.966Z,90.00
2022-08-14T16:56:45.386Z,90.00
2022-08-14T16:58:48.982Z,90.30
2022-08-14T17:01:24.337Z,90.40
2022-08-14T17:03:28.301Z,90.50
2022-08-14T17:05:43.316Z,90.60
2022-08-14T17:08:28.585Z,90.70
2022-08-14T17:10:31.523Z,90.90
2022-08-14T17:12:37.550Z,91.30
2022-08-14T17:14:54.368Z,91.90
2022-08-14T17:17:00.813Z,92.20
2022-08-14T17:19:05.889Z,92.30
2022-08-14T17:21:21.632Z,92.70
2022-08-14T17:23:29.934Z,93.20
2022-08-14T17:25:34.860Z,93.60
2022-08-14T17:27:38.116Z,94.10
2022-08-14T17:29:56.105Z,94.50
2022-08-14T17:32:28.377Z,94.90
2022-08-14T17:34:44.568Z,95.40
2022-08-14T17:36:49.570Z,95.90
2022-08-14T17:39:00.026Z,96.30
2022-08-14T17:41:17.520Z,96.70
2022-08-14T17:43:42.177Z,98.10
2022-08-14T17:45:46.936Z,98.90
2022-08-14T17:47:52.900Z,99.90
2022-08-14T17:49:55.884Z,99.90
2022-08-14T17:52:07.595Z,99.90
2022-08-14T17:54:22.835Z,99.90
2022-08-14T17:56:38.857Z,99.90
2022-08-14T17:58:42.317Z,99.90
2022-08-14T18:00:46.120Z,99.90
2022-08-14T18:02:58.427Z,99.90
2022-08-14T18:05:02.858Z,99.90
2022-08-14T18:07:16.819Z,99.90
2022-08-14T18:09:32.041Z,99.90
2022-08-14T18:11:45.465Z,99.90
2022-08-14T18:13:52.544Z,99.90
2022-08-14T18:15:56.747Z,99.90
2022-08-14T18:18:06.012Z,99.90
2022-08-14T18:21:23.082Z,99.90
2022-08-14T18:22:36.970Z,99.90
2022-08-14T18:24:41.513Z,99.90
2022-08-14T18:26:46.098Z,99.90
2022-08-14T18:28:53.601Z,99.90
2022-08-14T18:31:44.208Z,99.90
2022-08-14T18:33:56.636Z,99.90
2022-08-14T18:36:46.360Z,99.90
2022-08-14T18:38:26.136Z,99.90
2022-08-14T18:40:44.059Z,99.90
2022-08-14T18:42:49.116Z,99.90
2022-08-14T18:45:12.883Z,99.90
2022-08-14T18:47:23.976Z,99.90
2022-08-14T18:49:33.607Z,99.90
2022-08-14T18:51:46.287Z,99.90
2022-08-14T18:53:52.703Z,99.90
2022-08-14T18:56:00.038Z,99.90
2022-08-14T18:58:27.647Z,99.90
2022-08-14T19:00:54.957Z,99.90
2022-08-14T19:02:58.858Z,99.90
2022-08-14T19:05:05.282Z,99.90
2022-08-14T19:07:17.521Z,99.90
2022-08-14T19:09:51.639Z,99.90
2022-08-14T19:11:55.435Z,99.90
2022-08-14T19:14:00.177Z,99.90
2022-08-14T19:16:13.417Z,99.90
2022-08-14T19:18:26.458Z,99.90
2022-08-14T19:20:53.345Z,99.90
2022-08-14T19:22:57.337Z,99.90
2022-08-14T19:25:00.679Z,99.90
2022-08-14T19:27:26.292Z,99.90
2022-08-14T19:29:40.546Z,99.90
2022-08-14T19:31:46.535Z,99.90
2022-08-14T19:34:00.285Z,99.90
2022-08-14T19:36:28.811Z,99.90
2022-08-14T19:38:51.651Z,99.90
2022-08-14T19:40:55.101Z,99.90
2022-08-14T19:42:59.349Z,99.90
2022-08-14T19:45:05.138Z,99.90
2022-08-14T19:47:11.469Z,99.90
2022-08-14T19:49:14.750Z,99.90
2022-08-14T19:51:32.899Z,99.90
2022-08-14T19:53:49.894Z,99.90
2022-08-14T19:56:02.246Z,99.90
2022-08-14T19:58:05.993Z,99.90
2022-08-14T20:00:28.410Z,99.90
2022-08-14T20:02:37.607Z,99.90
2022-08-14T20:04:47.414Z,99.90
2022-08-14T20:07:04.090Z,99.90
2022-08-14T20:11:03.116Z,99.90
2022-08-14T20:11:58.432Z,99.90
2022-08-14T20:14:01.024Z,99.90
2022-08-14T20:16:12.328Z,99.90
2022-08-14T20:18:48.692Z,99.90
2022-08-14T20:20:47.763Z,99.90
2022-08-14T20:22:53.626Z,99.90
2022-08-14T20:25:11.349Z,99.90
2022-08-14T20:27:24.851Z,99.90
2022-08-14T20:29:38.087Z,99.90
2022-08-14T20:31:41.610Z,99.90
2022-08-14T20:34:03.225Z,99.90
2022-08-14T20:36:10.884Z,99.90
2022-08-14T20:38:31.684Z,99.90
2022-08-14T20:40:39.038Z,99.90
2022-08-14T20:42:55.397Z,99.90
2022-08-14T20:45:04.349Z,99.90
2022-08-14T20:47:13.470Z,99.90
2022-08-14T20:49:18.903Z,99.90
2022-08-14T20:51:23.865Z,99.90
2022-08-14T20:53:32.299Z,99.90
2022-08-14T20:55:41.748Z,99.90
2022-08-14T20:57:48.543Z,99.90
2022-08-14T20:59:57.847Z,99.90
2022-08-14T21:02:29.673Z,99.90
2022-08-14T21:04:36.726Z,99.90
2022-08-14T21:07:27.333Z,99.90
2022-08-14T21:09:14.717Z,99.90
2022-08-14T21:11:20.319Z,99.90
2022-08-14T21:14:08.839Z,99.90
2022-08-14T21:15:56.712Z,99.90
2022-08-14T21:18:02.578Z,99.90
2022-08-14T21:20:26.084Z,99.90
2022-08-14T21:22:29.879Z,99.90
2022-08-14T21:24:47.148Z,99.90
2022-08-14T21:27:12.187Z,99.90
2022-08-14T21:29:16.383Z,99.90
2022-08-14T21:31:19.344Z,99.90
2022-08-14T21:33:27.007Z,99.90
2022-08-14T21:35:30.424Z,99.90
2022-08-14T21:37:33.622Z,99.90
2022-08-14T21:39:37.160Z,99.90
2022-08-14T21:41:43.312Z,99.90
2022-08-14T21:43:56.313Z,99.90
2022-08-14T21:45:59.495Z,99.90
2022-08-14T21:48:10.851Z,99.90
2022-08-14T21:50:56.430Z,99.90
2022-08-14T21:52:51.079Z,99.90
2022-08-14T21:55:08.577Z,99.90
2022-08-14T21:57:14.949Z,99.90
2022-08-14T21:59:22.130Z,99.90
2022-08-14T22:01:27.113Z,99.90
2022-08-14T22:03:55.141Z,99.90
2022-08-14T22:06:02.227Z,99.90
2022-08-14T22:08:06.044Z,99.90
2022-08-14T22:10:11.091Z,99.90
2022-08-14T22:12:47.361Z,99.90
2022-08-14T22:14:43.637Z,99.90
2022-08-14T22:17:00.603Z,99.90
2022-08-14T22:19:13.732Z,99.90
2022-08-14T22:21:19.422Z,99.90
2022-08-14T22:23:22.920Z,99.90
2022-08-14T22:25:33.788Z,99.90
2022-08-14T22:27:56.312Z,99.90
2022-08-14T22:30:00.814Z,99.90
2022-08-14T22:32:07.219Z,99.90
2022-08-14T22:34:12.142Z,99.90
2022-08-14T22:36:25.048Z,99.90
2022-08-14T22:38:36.550Z,99.90
2022-08-14T22:41:02.087Z,99.90
2022-08-14T22:43:09.132Z,99.90
2022-08-14T22:45:14.039Z,99.90
2022-08-14T22:47:18.893Z,99.90
2022-08-14T22:50:30.669Z,99.90
2022-08-14T22:51:56.982Z,99.90
2022-08-14T22:53:59.998Z,99.90
2022-08-14T22:56:04.351Z,99.90
2022-08-14T22:58:07.743Z,99.90
2022-08-14T23:00:14.088Z,99.90
2022-08-14T23:02:20.606Z,99.90
2022-08-14T23:04:35.478Z,99.90
2022-08-14T23:07:01.243Z,99.90
2022-08-14T23:09:36.116Z,99.90
2022-08-14T23:11:33.840Z,99.90
2022-08-14T23:13:38.929Z,99.90
2022-08-14T23:15:43.274Z,99.90
2022-08-14T23:17:46.669Z,99.90
2022-08-14T23:19:56.216Z,99.90
2022-08-14T23:22:00.202Z,99.90
2022-08-14T23:24:03.845Z,99.90
2022-08-14T23:26:49.300Z,99.90
2022-08-14T23:28:57.221Z,99.90
2022-08-14T23:30:56.359Z,99.90
2022-08-14T23:32:59.659Z,99.90
2022-08-14T23:35:05.690Z,99.90
2022-08-14T23:37:08.973Z,99.90
2022-08-14T23:39:19.114Z,99.90
2022-08-14T23:41:25.091Z,99.90
2022-08-14T23:43:31.072Z,99.90
2022-08-14T23:45:37.348Z,99.90
2022-08-14T23:47:51.082Z,99.90
2022-08-14T23:50:03.551Z,99.90
2022-08-14T23:52:51.050Z,99.90
2022-08-14T23:54:48.595Z,99.90
2022-08-14T23:57:02.658Z,99.90
2022-08-14T23:59:06.873Z,99.90
